sensor_id;sensor_type;location;lat;lon;timestamp;P1;durP1;ratioP1;P2;durP2;ratioP2
16099;SDS011;8154;50.830;12.082;2023-12-20T00:02:43;1.13;;;0.70;;
16099;SDS011;8154;50.830;12.082;2023-12-20T00:05:16;1.67;;;0.90;;
16099;SDS011;8154;50.830;12.082;2023-12-20T00:07:44;1.60;;;0.80;;
16099;SDS011;8154;50.830;12.082;2023-12-20T00:10:10;1.70;;;0.90;;
16099;SDS011;8154;50.830;12.082;2023-12-20T00:12:57;1.75;;;1.02;;
16099;SDS011;8154;50.830;12.082;2023-12-20T00:15:23;1.20;;;0.80;;
16099;SDS011;8154;50.830;12.082;2023-12-20T00:17:50;1.35;;;0.80;;
16099;SDS011;8154;50.830;12.082;2023-12-20T00:20:26;1.67;;;0.95;;
16099;SDS011;8154;50.830;12.082;2023-12-20T00:23:13;1.55;;;0.80;;
16099;SDS011;8154;50.830;12.082;2023-12-20T00:25:59;1.20;;;0.80;;
16099;SDS011;8154;50.830;12.082;2023-12-20T00:28:37;1.33;;;0.80;;
16099;SDS011;8154;50.830;12.082;2023-12-20T00:31:20;1.45;;;0.88;;
16099;SDS011;8154;50.830;12.082;2023-12-20T00:33:51;1.42;;;0.82;;
16099;SDS011;8154;50.830;12.082;2023-12-20T00:36:27;1.13;;;0.70;;
16099;SDS011;8154;50.830;12.082;2023-12-20T00:38:59;2.05;;;1.00;;
16099;SDS011;8154;50.830;12.082;2023-12-20T00:41:36;1.40;;;0.90;;
16099;SDS011;8154;50.830;12.082;2023-12-20T00:44:05;1.73;;;0.80;;
16099;SDS011;8154;50.830;12.082;2023-12-20T00:46:38;1.58;;;0.90;;
16099;SDS011;8154;50.830;12.082;2023-12-20T00:49:14;1.13;;;0.60;;
16099;SDS011;8154;50.830;12.082;2023-12-20T00:51:46;1.55;;;0.90;;
16099;SDS011;8154;50.830;12.082;2023-12-20T00:54:33;1.57;;;0.90;;
16099;SDS011;8154;50.830;12.082;2023-12-20T00:57:19;1.10;;;0.70;;
16099;SDS011;8154;50.830;12.082;2023-12-20T00:59:47;1.02;;;0.68;;
16099;SDS011;8154;50.830;12.082;2023-12-20T01:02:15;1.00;;;0.70;;
16099;SDS011;8154;50.830;12.082;2023-12-20T01:04:46;1.73;;;0.80;;
16099;SDS011;8154;50.830;12.082;2023-12-20T01:07:14;1.50;;;0.80;;
16099;SDS011;8154;50.830;12.082;2023-12-20T01:09:47;1.13;;;0.80;;
16099;SDS011;8154;50.830;12.082;2023-12-20T01:12:16;1.60;;;0.80;;
16099;SDS011;8154;50.830;12.082;2023-12-20T01:14:51;1.42;;;0.77;;
16099;SDS011;8154;50.830;12.082;2023-12-20T01:17:37;1.33;;;0.80;;
16099;SDS011;8154;50.830;12.082;2023-12-20T01:20:22;1.77;;;1.00;;
16099;SDS011;8154;50.830;12.082;2023-12-20T01:22:48;1.10;;;0.68;;
16099;SDS011;8154;50.830;12.082;2023-12-20T01:25:22;1.25;;;0.82;;
16099;SDS011;8154;50.830;12.082;2023-12-20T01:27:52;0.95;;;0.60;;
16099;SDS011;8154;50.830;12.082;2023-12-20T01:30:19;1.60;;;0.80;;
16099;SDS011;8154;50.830;12.082;2023-12-20T01:32:48;1.17;;;0.70;;
16099;SDS011;8154;50.830;12.082;2023-12-20T01:35:18;1.27;;;0.80;;
16099;SDS011;8154;50.830;12.082;2023-12-20T01:37:47;1.10;;;0.70;;
16099;SDS011;8154;50.830;12.082;2023-12-20T01:40:22;1.48;;;0.90;;
16099;SDS011;8154;50.830;12.082;2023-12-20T01:43:01;1.02;;;0.80;;
16099;SDS011;8154;50.830;12.082;2023-12-20T01:45:31;0.90;;;0.60;;
16099;SDS011;8154;50.830;12.082;2023-12-20T01:47:59;1.42;;;0.80;;
16099;SDS011;8154;50.830;12.082;2023-12-20T01:50:26;1.30;;;0.85;;
16099;SDS011;8154;50.830;12.082;2023-12-20T01:53:10;1.05;;;0.70;;
16099;SDS011;8154;50.830;12.082;2023-12-20T01:55:44;1.45;;;0.80;;
16099;SDS011;8154;50.830;12.082;2023-12-20T01:58:20;1.20;;;0.80;;
16099;SDS011;8154;50.830;12.082;2023-12-20T02:00:57;1.38;;;0.70;;
16099;SDS011;8154;50.830;12.082;2023-12-20T02:03:23;1.10;;;0.80;;
16099;SDS011;8154;50.830;12.082;2023-12-20T02:05:58;1.20;;;0.80;;
16099;SDS011;8154;50.830;12.082;2023-12-20T02:08:30;0.93;;;0.63;;
16099;SDS011;8154;50.830;12.082;2023-12-20T02:10:56;1.20;;;0.73;;
16099;SDS011;8154;50.830;12.082;2023-12-20T02:13:28;1.63;;;0.80;;
16099;SDS011;8154;50.830;12.082;2023-12-20T02:16:01;1.10;;;0.68;;
16099;SDS011;8154;50.830;12.082;2023-12-20T02:18:47;1.30;;;0.73;;
16099;SDS011;8154;50.830;12.082;2023-12-20T02:21:17;1.13;;;0.80;;
16099;SDS011;8154;50.830;12.082;2023-12-20T02:23:54;0.97;;;0.70;;
16099;SDS011;8154;50.830;12.082;2023-12-20T02:26:21;1.33;;;0.80;;
16099;SDS011;8154;50.830;12.082;2023-12-20T02:28:57;1.23;;;0.70;;
16099;SDS011;8154;50.830;12.082;2023-12-20T02:31:44;1.55;;;0.70;;
16099;SDS011;8154;50.830;12.082;2023-12-20T02:34:18;1.08;;;0.68;;
16099;SDS011;8154;50.830;12.082;2023-12-20T02:36:50;1.37;;;0.70;;
16099;SDS011;8154;50.830;12.082;2023-12-20T02:39:16;1.10;;;0.70;;
16099;SDS011;8154;50.830;12.082;2023-12-20T02:41:55;1.25;;;0.70;;
16099;SDS011;8154;50.830;12.082;2023-12-20T02:44:32;1.38;;;0.80;;
16099;SDS011;8154;50.830;12.082;2023-12-20T02:47:03;1.30;;;0.80;;
16099;SDS011;8154;50.830;12.082;2023-12-20T02:49:42;0.80;;;0.60;;
16099;SDS011;8154;50.830;12.082;2023-12-20T02:52:12;0.90;;;0.63;;
16099;SDS011;8154;50.830;12.082;2023-12-20T02:54:40;1.27;;;0.70;;
16099;SDS011;8154;50.830;12.082;2023-12-20T02:57:07;1.45;;;0.80;;
16099;SDS011;8154;50.830;12.082;2023-12-20T02:59:41;1.40;;;0.80;;
16099;SDS011;8154;50.830;12.082;2023-12-20T03:02:09;1.33;;;0.80;;
16099;SDS011;8154;50.830;12.082;2023-12-20T03:04:36;1.55;;;0.80;;
16099;SDS011;8154;50.830;12.082;2023-12-20T03:10:03;1.13;;;0.80;;
16099;SDS011;8154;50.830;12.082;2023-12-20T03:12:32;1.10;;;0.70;;
16099;SDS011;8154;50.830;12.082;2023-12-20T03:15:02;1.13;;;0.70;;
16099;SDS011;8154;50.830;12.082;2023-12-20T03:17:48;1.00;;;0.68;;
16099;SDS011;8154;50.830;12.082;2023-12-20T03:20:20;0.98;;;0.60;;
16099;SDS011;8154;50.830;12.082;2023-12-20T03:22:54;1.00;;;0.70;;
16099;SDS011;8154;50.830;12.082;2023-12-20T03:25:29;1.35;;;0.73;;
16099;SDS011;8154;50.830;12.082;2023-12-20T03:27:58;1.17;;;0.70;;
16099;SDS011;8154;50.830;12.082;2023-12-20T03:30:27;1.00;;;0.63;;
16099;SDS011;8154;50.830;12.082;2023-12-20T03:33:08;1.08;;;0.80;;
16099;SDS011;8154;50.830;12.082;2023-12-20T03:35:45;0.70;;;0.50;;
16099;SDS011;8154;50.830;12.082;2023-12-20T03:38:20;1.05;;;0.65;;
16099;SDS011;8154;50.830;12.082;2023-12-20T03:40:51;0.87;;;0.60;;
16099;SDS011;8154;50.830;12.082;2023-12-20T03:43:20;1.00;;;0.70;;
16099;SDS011;8154;50.830;12.082;2023-12-20T03:45:49;0.88;;;0.60;;
16099;SDS011;8154;50.830;12.082;2023-12-20T03:48:32;1.20;;;0.70;;
16099;SDS011;8154;50.830;12.082;2023-12-20T03:51:18;1.00;;;0.60;;
16099;SDS011;8154;50.830;12.082;2023-12-20T03:53:44;1.13;;;0.63;;
16099;SDS011;8154;50.830;12.082;2023-12-20T03:56:11;0.75;;;0.55;;
16099;SDS011;8154;50.830;12.082;2023-12-20T03:58:51;1.08;;;0.63;;
16099;SDS011;8154;50.830;12.082;2023-12-20T04:01:25;1.30;;;0.80;;
16099;SDS011;8154;50.830;12.082;2023-12-20T04:03:57;0.90;;;0.68;;
16099;SDS011;8154;50.830;12.082;2023-12-20T04:06:24;0.90;;;0.60;;
16099;SDS011;8154;50.830;12.082;2023-12-20T04:09:10;1.10;;;0.70;;
16099;SDS011;8154;50.830;12.082;2023-12-20T04:11:36;0.70;;;0.60;;
16099;SDS011;8154;50.830;12.082;2023-12-20T04:14:05;0.80;;;0.57;;
16099;SDS011;8154;50.830;12.082;2023-12-20T04:16:50;0.82;;;0.60;;
16099;SDS011;8154;50.830;12.082;2023-12-20T04:19:21;1.00;;;0.70;;
16099;SDS011;8154;50.830;12.082;2023-12-20T04:21:48;0.90;;;0.70;;
16099;SDS011;8154;50.830;12.082;2023-12-20T04:24:33;0.93;;;0.60;;
16099;SDS011;8154;50.830;12.082;2023-12-20T04:27:14;1.20;;;0.77;;
16099;SDS011;8154;50.830;12.082;2023-12-20T04:29:41;0.95;;;0.70;;
16099;SDS011;8154;50.830;12.082;2023-12-20T04:32:07;0.87;;;0.60;;
16099;SDS011;8154;50.830;12.082;2023-12-20T04:34:52;0.98;;;0.60;;
16099;SDS011;8154;50.830;12.082;2023-12-20T04:37:22;0.93;;;0.80;;
16099;SDS011;8154;50.830;12.082;2023-12-20T04:39:48;0.85;;;0.60;;
16099;SDS011;8154;50.830;12.082;2023-12-20T04:42:21;0.82;;;0.63;;
16099;SDS011;8154;50.830;12.082;2023-12-20T04:44:53;0.90;;;0.70;;
16099;SDS011;8154;50.830;12.082;2023-12-20T04:47:35;1.23;;;0.70;;
16099;SDS011;8154;50.830;12.082;2023-12-20T04:50:09;0.90;;;0.60;;
16099;SDS011;8154;50.830;12.082;2023-12-20T04:52:37;1.40;;;0.70;;
16099;SDS011;8154;50.830;12.082;2023-12-20T04:55:23;0.80;;;0.70;;
16099;SDS011;8154;50.830;12.082;2023-12-20T04:57:50;0.80;;;0.60;;
16099;SDS011;8154;50.830;12.082;2023-12-20T05:00:17;1.48;;;0.75;;
16099;SDS011;8154;50.830;12.082;2023-12-20T05:02:51;0.88;;;0.68;;
16099;SDS011;8154;50.830;12.082;2023-12-20T05:05:18;0.80;;;0.60;;
16099;SDS011;8154;50.830;12.082;2023-12-20T05:07:53;0.85;;;0.60;;
16099;SDS011;8154;50.830;12.082;2023-12-20T05:10:38;0.70;;;0.50;;
16099;SDS011;8154;50.830;12.082;2023-12-20T05:13:13;1.23;;;0.70;;
16099;SDS011;8154;50.830;12.082;2023-12-20T05:15:52;0.80;;;0.60;;
16099;SDS011;8154;50.830;12.082;2023-12-20T05:18:27;0.85;;;0.63;;
16099;SDS011;8154;50.830;12.082;2023-12-20T05:21:13;0.95;;;0.60;;
16099;SDS011;8154;50.830;12.082;2023-12-20T05:23:44;0.70;;;0.50;;
16099;SDS011;8154;50.830;12.082;2023-12-20T05:26:31;1.00;;;0.60;;
16099;SDS011;8154;50.830;12.082;2023-12-20T05:29:16;0.77;;;0.60;;
16099;SDS011;8154;50.830;12.082;2023-12-20T05:31:43;1.50;;;0.60;;
16099;SDS011;8154;50.830;12.082;2023-12-20T05:34:09;0.82;;;0.70;;
16099;SDS011;8154;50.830;12.082;2023-12-20T05:36:43;1.00;;;0.70;;
16099;SDS011;8154;50.830;12.082;2023-12-20T05:39:09;0.70;;;0.60;;
16099;SDS011;8154;50.830;12.082;2023-12-20T05:41:38;0.80;;;0.60;;
16099;SDS011;8154;50.830;12.082;2023-12-20T05:44:04;0.85;;;0.60;;
16099;SDS011;8154;50.830;12.082;2023-12-20T05:46:30;0.77;;;0.60;;
16099;SDS011;8154;50.830;12.082;2023-12-20T05:48:57;0.63;;;0.50;;
16099;SDS011;8154;50.830;12.082;2023-12-20T05:51:23;0.80;;;0.55;;
16099;SDS011;8154;50.830;12.082;2023-12-20T05:54:05;0.75;;;0.57;;
16099;SDS011;8154;50.830;12.082;2023-12-20T05:56:31;0.80;;;0.60;;
16099;SDS011;8154;50.830;12.082;2023-12-20T05:59:03;0.82;;;0.52;;
16099;SDS011;8154;50.830;12.082;2023-12-20T06:01:38;0.90;;;0.70;;
16099;SDS011;8154;50.830;12.082;2023-12-20T06:04:04;1.00;;;0.65;;
16099;SDS011;8154;50.830;12.082;2023-12-20T06:06:33;0.90;;;0.60;;
16099;SDS011;8154;50.830;12.082;2023-12-20T06:09:00;0.90;;;0.60;;
16099;SDS011;8154;50.830;12.082;2023-12-20T06:11:31;0.80;;;0.60;;
16099;SDS011;8154;50.830;12.082;2023-12-20T06:13:57;0.80;;;0.50;;
16099;SDS011;8154;50.830;12.082;2023-12-20T06:16:24;1.00;;;0.60;;
16099;SDS011;8154;50.830;12.082;2023-12-20T06:19:04;1.05;;;0.70;;
16099;SDS011;8154;50.830;12.082;2023-12-20T06:21:42;0.90;;;0.70;;
16099;SDS011;8154;50.830;12.082;2023-12-20T06:24:28;0.90;;;0.55;;
16099;SDS011;8154;50.830;12.082;2023-12-20T06:26:54;0.93;;;0.60;;
16099;SDS011;8154;50.830;12.082;2023-12-20T06:29:23;0.98;;;0.57;;
16099;SDS011;8154;50.830;12.082;2023-12-20T06:34:50;1.05;;;0.70;;
16099;SDS011;8154;50.830;12.082;2023-12-20T06:37:17;0.82;;;0.50;;
16099;SDS011;8154;50.830;12.082;2023-12-20T06:39:43;1.40;;;0.50;;
16099;SDS011;8154;50.830;12.082;2023-12-20T06:42:09;0.75;;;0.60;;
16099;SDS011;8154;50.830;12.082;2023-12-20T06:44:48;0.88;;;0.60;;
16099;SDS011;8154;50.830;12.082;2023-12-20T06:47:14;0.88;;;0.50;;
16099;SDS011;8154;50.830;12.082;2023-12-20T06:49:40;0.80;;;0.60;;
16099;SDS011;8154;50.830;12.082;2023-12-20T06:52:06;0.90;;;0.70;;
16099;SDS011;8154;50.830;12.082;2023-12-20T06:54:32;0.90;;;0.60;;
16099;SDS011;8154;50.830;12.082;2023-12-20T06:57:00;1.00;;;0.60;;
16099;SDS011;8154;50.830;12.082;2023-12-20T06:59:29;0.77;;;0.57;;
16099;SDS011;8154;50.830;12.082;2023-12-20T07:02:08;1.05;;;0.60;;
16099;SDS011;8154;50.830;12.082;2023-12-20T07:04:39;0.90;;;0.60;;
16099;SDS011;8154;50.830;12.082;2023-12-20T07:07:06;0.70;;;0.50;;
16099;SDS011;8154;50.830;12.082;2023-12-20T07:09:33;0.70;;;0.50;;
16099;SDS011;8154;50.830;12.082;2023-12-20T07:12:00;0.60;;;0.50;;
16099;SDS011;8154;50.830;12.082;2023-12-20T07:14:26;0.70;;;0.50;;
16099;SDS011;8154;50.830;12.082;2023-12-20T07:20:33;0.70;;;0.57;;
16099;SDS011;8154;50.830;12.082;2023-12-20T07:22:59;0.82;;;0.63;;
16099;SDS011;8154;50.830;12.082;2023-12-20T07:25:25;0.95;;;0.60;;
16099;SDS011;8154;50.830;12.082;2023-12-20T07:27:52;0.80;;;0.50;;
16099;SDS011;8154;50.830;12.082;2023-12-20T07:30:20;0.80;;;0.60;;
16099;SDS011;8154;50.830;12.082;2023-12-20T07:32:46;0.85;;;0.60;;
16099;SDS011;8154;50.830;12.082;2023-12-20T07:35:15;0.80;;;0.60;;
16099;SDS011;8154;50.830;12.082;2023-12-20T07:37:42;0.70;;;0.50;;
16099;SDS011;8154;50.830;12.082;2023-12-20T07:40:08;1.10;;;0.60;;
16099;SDS011;8154;50.830;12.082;2023-12-20T07:42:41;0.70;;;0.57;;
16099;SDS011;8154;50.830;12.082;2023-12-20T07:45:30;1.35;;;0.60;;
16099;SDS011;8154;50.830;12.082;2023-12-20T07:48:16;0.70;;;0.57;;
16099;SDS011;8154;50.830;12.082;2023-12-20T07:50:42;0.90;;;0.60;;
16099;SDS011;8154;50.830;12.082;2023-12-20T07:53:22;1.13;;;0.60;;
16099;SDS011;8154;50.830;12.082;2023-12-20T07:55:58;0.63;;;0.53;;
16099;SDS011;8154;50.830;12.082;2023-12-20T07:58:37;0.73;;;0.65;;
16099;SDS011;8154;50.830;12.082;2023-12-20T08:01:20;0.70;;;0.60;;
16099;SDS011;8154;50.830;12.082;2023-12-20T08:03:48;0.70;;;0.60;;
16099;SDS011;8154;50.830;12.082;2023-12-20T08:06:14;0.95;;;0.68;;
16099;SDS011;8154;50.830;12.082;2023-12-20T08:08:43;0.80;;;0.60;;
16099;SDS011;8154;50.830;12.082;2023-12-20T08:11:11;0.70;;;0.60;;
16099;SDS011;8154;50.830;12.082;2023-12-20T08:13:41;0.70;;;0.50;;
16099;SDS011;8154;50.830;12.082;2023-12-20T08:16:07;0.90;;;0.60;;
16099;SDS011;8154;50.830;12.082;2023-12-20T08:18:53;0.65;;;0.50;;
16099;SDS011;8154;50.830;12.082;2023-12-20T08:21:34;0.70;;;0.50;;
16099;SDS011;8154;50.830;12.082;2023-12-20T08:24:00;1.15;;;0.57;;
16099;SDS011;8154;50.830;12.082;2023-12-20T08:26:32;0.60;;;0.50;;
16099;SDS011;8154;50.830;12.082;2023-12-20T08:29:02;0.73;;;0.50;;
16099;SDS011;8154;50.830;12.082;2023-12-20T08:31:29;0.90;;;0.65;;
16099;SDS011;8154;50.830;12.082;2023-12-20T08:33:55;0.90;;;0.70;;
16099;SDS011;8154;50.830;12.082;2023-12-20T08:36:22;0.70;;;0.50;;
16099;SDS011;8154;50.830;12.082;2023-12-20T08:38:49;0.95;;;0.52;;
16099;SDS011;8154;50.830;12.082;2023-12-20T08:41:16;0.60;;;0.50;;
16099;SDS011;8154;50.830;12.082;2023-12-20T08:43:43;0.80;;;0.50;;
16099;SDS011;8154;50.830;12.082;2023-12-20T08:46:14;0.70;;;0.50;;
16099;SDS011;8154;50.830;12.082;2023-12-20T08:48:56;0.70;;;0.60;;
16099;SDS011;8154;50.830;12.082;2023-12-20T08:51:42;0.70;;;0.60;;
16099;SDS011;8154;50.830;12.082;2023-12-20T08:54:09;0.80;;;0.60;;
16099;SDS011;8154;50.830;12.082;2023-12-20T08:56:35;0.63;;;0.60;;
16099;SDS011;8154;50.830;12.082;2023-12-20T08:59:02;0.60;;;0.50;;
16099;SDS011;8154;50.830;12.082;2023-12-20T09:01:40;0.77;;;0.50;;
16099;SDS011;8154;50.830;12.082;2023-12-20T09:04:26;0.55;;;0.40;;
16099;SDS011;8154;50.830;12.082;2023-12-20T09:06:53;1.13;;;0.60;;
16099;SDS011;8154;50.830;12.082;2023-12-20T09:09:19;0.90;;;0.50;;
16099;SDS011;8154;50.830;12.082;2023-12-20T09:11:45;1.00;;;0.70;;
16099;SDS011;8154;50.830;12.082;2023-12-20T09:14:21;0.68;;;0.50;;
16099;SDS011;8154;50.830;12.082;2023-12-20T09:16:50;1.15;;;0.65;;
16099;SDS011;8154;50.830;12.082;2023-12-20T09:19:20;0.70;;;0.50;;
16099;SDS011;8154;50.830;12.082;2023-12-20T09:22:06;0.70;;;0.50;;
16099;SDS011;8154;50.830;12.082;2023-12-20T09:24:33;0.80;;;0.50;;
16099;SDS011;8154;50.830;12.082;2023-12-20T09:27:00;0.70;;;0.60;;
16099;SDS011;8154;50.830;12.082;2023-12-20T09:29:28;0.88;;;0.52;;
16099;SDS011;8154;50.830;12.082;2023-12-20T09:32:14;0.60;;;0.50;;
16099;SDS011;8154;50.830;12.082;2023-12-20T09:34:53;0.63;;;0.60;;
16099;SDS011;8154;50.830;12.082;2023-12-20T09:37:22;0.77;;;0.60;;
16099;SDS011;8154;50.830;12.082;2023-12-20T09:39:59;1.20;;;0.70;;
16099;SDS011;8154;50.830;12.082;2023-12-20T09:42:43;0.77;;;0.60;;
16099;SDS011;8154;50.830;12.082;2023-12-20T09:45:15;0.98;;;0.60;;
16099;SDS011;8154;50.830;12.082;2023-12-20T09:47:55;0.80;;;0.60;;
16099;SDS011;8154;50.830;12.082;2023-12-20T09:50:42;0.75;;;0.60;;
16099;SDS011;8154;50.830;12.082;2023-12-20T09:53:20;0.90;;;0.60;;
16099;SDS011;8154;50.830;12.082;2023-12-20T09:56:08;0.70;;;0.57;;
16099;SDS011;8154;50.830;12.082;2023-12-20T09:58:40;1.00;;;0.60;;
16099;SDS011;8154;50.830;12.082;2023-12-20T10:01:21;0.70;;;0.50;;
16099;SDS011;8154;50.830;12.082;2023-12-20T10:04:09;0.70;;;0.50;;
16099;SDS011;8154;50.830;12.082;2023-12-20T10:06:43;0.90;;;0.52;;
16099;SDS011;8154;50.830;12.082;2023-12-20T10:09:22;0.77;;;0.50;;
16099;SDS011;8154;50.830;12.082;2023-12-20T10:12:04;0.95;;;0.70;;
16099;SDS011;8154;50.830;12.082;2023-12-20T10:14:32;1.20;;;0.50;;
16099;SDS011;8154;50.830;12.082;2023-12-20T10:17:02;0.65;;;0.50;;
16099;SDS011;8154;50.830;12.082;2023-12-20T10:19:29;0.73;;;0.60;;
16099;SDS011;8154;50.830;12.082;2023-12-20T10:22:18;1.05;;;0.63;;
16099;SDS011;8154;50.830;12.082;2023-12-20T10:24:44;0.88;;;0.60;;
16099;SDS011;8154;50.830;12.082;2023-12-20T10:27:14;0.60;;;0.50;;
16099;SDS011;8154;50.830;12.082;2023-12-20T10:29:40;0.80;;;0.55;;
16099;SDS011;8154;50.830;12.082;2023-12-20T10:32:23;0.80;;;0.50;;
16099;SDS011;8154;50.830;12.082;2023-12-20T10:34:58;0.88;;;0.50;;
16099;SDS011;8154;50.830;12.082;2023-12-20T10:37:25;0.80;;;0.55;;
16099;SDS011;8154;50.830;12.082;2023-12-20T10:39:54;0.80;;;0.50;;
16099;SDS011;8154;50.830;12.082;2023-12-20T10:42:27;0.80;;;0.50;;
16099;SDS011;8154;50.830;12.082;2023-12-20T10:44:56;0.80;;;0.52;;
16099;SDS011;8154;50.830;12.082;2023-12-20T10:47:22;1.10;;;0.60;;
16099;SDS011;8154;50.830;12.082;2023-12-20T10:49:51;0.80;;;0.60;;
16099;SDS011;8154;50.830;12.082;2023-12-20T10:52:29;0.70;;;0.40;;
16099;SDS011;8154;50.830;12.082;2023-12-20T10:55:02;0.70;;;0.50;;
16099;SDS011;8154;50.830;12.082;2023-12-20T10:57:30;1.05;;;0.50;;
16099;SDS011;8154;50.830;12.082;2023-12-20T11:00:09;0.85;;;0.50;;
16099;SDS011;8154;50.830;12.082;2023-12-20T11:02:41;1.08;;;0.60;;
16099;SDS011;8154;50.830;12.082;2023-12-20T11:15:07;0.68;;;0.45;;
16099;SDS011;8154;50.830;12.082;2023-12-20T11:17:34;0.90;;;0.50;;
16099;SDS011;8154;50.830;12.082;2023-12-20T11:20:04;0.80;;;0.53;;
16099;SDS011;8154;50.830;12.082;2023-12-20T11:22:31;0.75;;;0.50;;
16099;SDS011;8154;50.830;12.082;2023-12-20T11:29:28;0.88;;;0.50;;
16099;SDS011;8154;50.830;12.082;2023-12-20T11:32:01;0.82;;;0.60;;
16099;SDS011;8154;50.830;12.082;2023-12-20T11:34:33;0.80;;;0.60;;
16099;SDS011;8154;50.830;12.082;2023-12-20T11:37:02;0.60;;;0.50;;
16099;SDS011;8154;50.830;12.082;2023-12-20T11:39:28;0.82;;;0.50;;
16099;SDS011;8154;50.830;12.082;2023-12-20T11:41:56;0.73;;;0.50;;
16099;SDS011;8154;50.830;12.082;2023-12-20T11:44:25;0.80;;;0.40;;
16099;SDS011;8154;50.830;12.082;2023-12-20T11:46:51;0.87;;;0.50;;
16099;SDS011;8154;50.830;12.082;2023-12-20T11:49:31;0.93;;;0.50;;
16099;SDS011;8154;50.830;12.082;2023-12-20T11:51:57;0.60;;;0.50;;
16099;SDS011;8154;50.830;12.082;2023-12-20T11:54:35;0.68;;;0.50;;
16099;SDS011;8154;50.830;12.082;2023-12-20T11:57:15;1.25;;;0.60;;
16099;SDS011;8154;50.830;12.082;2023-12-20T11:59:54;0.67;;;0.50;;
16099;SDS011;8154;50.830;12.082;2023-12-20T12:02:33;0.70;;;0.50;;
16099;SDS011;8154;50.830;12.082;2023-12-20T12:08:22;1.17;;;0.57;;
16099;SDS011;8154;50.830;12.082;2023-12-20T12:10:48;0.93;;;0.55;;
16099;SDS011;8154;50.830;12.082;2023-12-20T12:17:20;0.70;;;0.40;;
16099;SDS011;8154;50.830;12.082;2023-12-20T12:20:05;0.90;;;0.60;;
16099;SDS011;8154;50.830;12.082;2023-12-20T12:23:02;0.63;;;0.43;;
16099;SDS011;8154;50.830;12.082;2023-12-20T12:25:50;0.70;;;0.40;;
16099;SDS011;8154;50.830;12.082;2023-12-20T12:28:17;0.57;;;0.40;;
16099;SDS011;8154;50.830;12.082;2023-12-20T12:30:56;1.10;;;0.50;;
16099;SDS011;8154;50.830;12.082;2023-12-20T12:33:25;0.70;;;0.50;;
16099;SDS011;8154;50.830;12.082;2023-12-20T12:35:53;1.25;;;0.60;;
16099;SDS011;8154;50.830;12.082;2023-12-20T12:38:35;0.80;;;0.50;;
16099;SDS011;8154;50.830;12.082;2023-12-20T12:47:57;1.08;;;0.50;;
16099;SDS011;8154;50.830;12.082;2023-12-20T12:53:32;0.80;;;0.60;;
16099;SDS011;8154;50.830;12.082;2023-12-20T12:56:17;1.13;;;0.60;;
16099;SDS011;8154;50.830;12.082;2023-12-20T12:58:44;0.93;;;0.52;;
16099;SDS011;8154;50.830;12.082;2023-12-20T13:01:20;0.70;;;0.40;;
16099;SDS011;8154;50.830;12.082;2023-12-20T13:03:47;0.80;;;0.40;;
16099;SDS011;8154;50.830;12.082;2023-12-20T13:06:32;1.30;;;0.70;;
16099;SDS011;8154;50.830;12.082;2023-12-20T13:09:17;0.80;;;0.60;;
16099;SDS011;8154;50.830;12.082;2023-12-20T13:18:21;1.45;;;0.50;;
16099;SDS011;8154;50.830;12.082;2023-12-20T13:20:58;0.80;;;0.60;;
16099;SDS011;8154;50.830;12.082;2023-12-20T13:23:44;0.90;;;0.60;;
16099;SDS011;8154;50.830;12.082;2023-12-20T13:26:14;0.80;;;0.50;;
16099;SDS011;8154;50.830;12.082;2023-12-20T13:28:40;1.10;;;0.50;;
16099;SDS011;8154;50.830;12.082;2023-12-20T13:31:26;0.95;;;0.50;;
16099;SDS011;8154;50.830;12.082;2023-12-20T13:33:52;0.80;;;0.50;;
16099;SDS011;8154;50.830;12.082;2023-12-20T13:36:18;0.77;;;0.50;;
16099;SDS011;8154;50.830;12.082;2023-12-20T13:39:04;1.38;;;0.60;;
16099;SDS011;8154;50.830;12.082;2023-12-20T13:41:32;0.70;;;0.60;;
16099;SDS011;8154;50.830;12.082;2023-12-20T13:44:31;1.20;;;0.65;;
16099;SDS011;8154;50.830;12.082;2023-12-20T13:47:39;1.08;;;0.55;;
16099;SDS011;8154;50.830;12.082;2023-12-20T13:50:05;0.97;;;0.60;;
16099;SDS011;8154;50.830;12.082;2023-12-20T13:52:51;0.75;;;0.50;;
16099;SDS011;8154;50.830;12.082;2023-12-20T13:55:37;1.35;;;0.60;;
16099;SDS011;8154;50.830;12.082;2023-12-20T13:58:05;0.90;;;0.52;;
16099;SDS011;8154;50.830;12.082;2023-12-20T14:00:31;1.02;;;0.60;;
16099;SDS011;8154;50.830;12.082;2023-12-20T14:02:57;0.80;;;0.50;;
16099;SDS011;8154;50.830;12.082;2023-12-20T14:05:24;0.60;;;0.43;;
16099;SDS011;8154;50.830;12.082;2023-12-20T14:07:51;0.80;;;0.60;;
16099;SDS011;8154;50.830;12.082;2023-12-20T14:10:22;1.00;;;0.60;;
16099;SDS011;8154;50.830;12.082;2023-12-20T14:19:23;0.70;;;0.60;;
16099;SDS011;8154;50.830;12.082;2023-12-20T14:21:50;0.98;;;0.60;;
16099;SDS011;8154;50.830;12.082;2023-12-20T14:28:04;1.08;;;0.60;;
16099;SDS011;8154;50.830;12.082;2023-12-20T14:30:50;1.13;;;0.73;;
16099;SDS011;8154;50.830;12.082;2023-12-20T14:37:19;1.20;;;0.75;;
16099;SDS011;8154;50.830;12.082;2023-12-20T14:39:46;0.75;;;0.50;;
16099;SDS011;8154;50.830;12.082;2023-12-20T14:42:15;1.15;;;0.70;;
16099;SDS011;8154;50.830;12.082;2023-12-20T14:45:01;1.07;;;0.63;;
16099;SDS011;8154;50.830;12.082;2023-12-20T14:47:27;0.73;;;0.52;;
16099;SDS011;8154;50.830;12.082;2023-12-20T14:49:54;1.20;;;0.50;;
16099;SDS011;8154;50.830;12.082;2023-12-20T14:52:40;0.95;;;0.68;;
16099;SDS011;8154;50.830;12.082;2023-12-20T14:55:07;0.75;;;0.60;;
16099;SDS011;8154;50.830;12.082;2023-12-20T14:57:34;1.13;;;0.60;;
16099;SDS011;8154;50.830;12.082;2023-12-20T15:00:02;1.05;;;0.50;;
16099;SDS011;8154;50.830;12.082;2023-12-20T15:02:49;1.25;;;0.60;;
16099;SDS011;8154;50.830;12.082;2023-12-20T15:05:26;1.10;;;0.80;;
16099;SDS011;8154;50.830;12.082;2023-12-20T15:08:03;0.88;;;0.70;;
16099;SDS011;8154;50.830;12.082;2023-12-20T15:10:29;1.00;;;0.60;;
16099;SDS011;8154;50.830;12.082;2023-12-20T15:12:56;1.13;;;0.70;;
16099;SDS011;8154;50.830;12.082;2023-12-20T15:15:23;1.30;;;0.80;;
16099;SDS011;8154;50.830;12.082;2023-12-20T15:17:49;1.80;;;0.65;;
16099;SDS011;8154;50.830;12.082;2023-12-20T15:20:16;0.77;;;0.55;;
16099;SDS011;8154;50.830;12.082;2023-12-20T15:22:43;1.27;;;0.70;;
16099;SDS011;8154;50.830;12.082;2023-12-20T15:25:40;1.40;;;0.70;;
16099;SDS011;8154;50.830;12.082;2023-12-20T15:28:26;1.40;;;0.70;;
16099;SDS011;8154;50.830;12.082;2023-12-20T15:31:15;1.75;;;0.63;;
16099;SDS011;8154;50.830;12.082;2023-12-20T15:33:41;1.10;;;0.60;;
16099;SDS011;8154;50.830;12.082;2023-12-20T15:36:08;0.97;;;0.70;;
16099;SDS011;8154;50.830;12.082;2023-12-20T15:38:54;1.02;;;0.70;;
16099;SDS011;8154;50.830;12.082;2023-12-20T15:41:20;1.17;;;0.60;;
16099;SDS011;8154;50.830;12.082;2023-12-20T15:44:08;1.60;;;0.73;;
16099;SDS011;8154;50.830;12.082;2023-12-20T15:46:51;1.20;;;0.60;;
16099;SDS011;8154;50.830;12.082;2023-12-20T15:49:21;1.60;;;0.70;;
16099;SDS011;8154;50.830;12.082;2023-12-20T15:52:06;1.00;;;0.60;;
16099;SDS011;8154;50.830;12.082;2023-12-20T15:54:34;1.20;;;0.70;;
16099;SDS011;8154;50.830;12.082;2023-12-20T15:57:03;2.05;;;0.80;;
16099;SDS011;8154;50.830;12.082;2023-12-20T15:59:36;1.07;;;0.60;;
16099;SDS011;8154;50.830;12.082;2023-12-20T16:02:02;0.85;;;0.55;;
16099;SDS011;8154;50.830;12.082;2023-12-20T16:04:29;0.82;;;0.60;;
16099;SDS011;8154;50.830;12.082;2023-12-20T16:07:00;1.45;;;0.70;;
16099;SDS011;8154;50.830;12.082;2023-12-20T16:09:33;0.90;;;0.60;;
16099;SDS011;8154;50.830;12.082;2023-12-20T16:12:00;1.37;;;0.80;;
16099;SDS011;8154;50.830;12.082;2023-12-20T16:14:26;1.63;;;0.70;;
16099;SDS011;8154;50.830;12.082;2023-12-20T16:16:55;1.17;;;0.68;;
16099;SDS011;8154;50.830;12.082;2023-12-20T16:19:34;1.08;;;0.70;;
16099;SDS011;8154;50.830;12.082;2023-12-20T16:22:00;1.20;;;0.60;;
16099;SDS011;8154;50.830;12.082;2023-12-20T16:24:27;0.80;;;0.60;;
16099;SDS011;8154;50.830;12.082;2023-12-20T16:26:55;1.10;;;0.70;;